CheckWX is a tool to help pilots better visualize weather data.  It is not intended as a substitute for an official pre-flight weather briefing.

22:37:35 UTC

FGSL METAR
Malabo Airport
Malabo, Equatorial Guinea
Current

38 mins ago

FGSL 262200Z 00000KT 9999 FEW010 26/24 Q1012 NOSIG
Observed
Mar-26 @ 22:00 UTC
Visibility
10,000+ meters
Flight Rules
VFR
Cloud Levels
  • Few at 1,000' AGL
Temperature
26°C / 79°F
Dewpoint
24°C / 75°F
Humidity
89%
Altimeter
29.88" Hg
Pressure
1011.92 hPa
Previous

2 hours ago

FGSL 262100Z 00000KT 9999 FEW010 26/24 Q1011 NOSIG
Observed
Mar-26 @ 21:00 UTC
Visibility
10,000+ meters
Flight Rules
VFR
Cloud Levels
  • Few at 1,000' AGL
Temperature
26°C / 79°F
Dewpoint
24°C / 75°F
Humidity
89%
Altimeter
29.85" Hg
Pressure
1010.92 hPa
Previous

3 hours ago

FGSL 262000Z 24003KT 9999 FEW010 27/24 Q1011 NOSIG
Observed
Mar-26 @ 20:00 UTC
Wind
  • 240° at 3 KTS
Visibility
10,000+ meters
Flight Rules
VFR
Cloud Levels
  • Few at 1,000' AGL
Temperature
27°C / 81°F
Dewpoint
24°C / 75°F
Humidity
84%
Altimeter
29.85" Hg
Pressure
1010.92 hPa